createdAt,value
2022-08-26T00:01:31.170Z,7.55
2022-08-26T00:03:58.567Z,7.60
2022-08-26T00:06:26.244Z,8.05
2022-08-26T00:08:53.269Z,9.05
2022-08-26T00:11:26.610Z,7.75
2022-08-26T00:13:55.047Z,10.05
2022-08-26T00:16:23.487Z,9.07
2022-08-26T00:18:50.416Z,8.48
2022-08-26T00:21:17.214Z,11.52
2022-08-26T00:23:44.102Z,11.05
2022-08-26T00:26:11.154Z,8.57
2022-08-26T00:28:37.989Z,8.85
2022-08-26T00:31:07.755Z,6.45
2022-08-26T00:33:39.419Z,7.93
2022-08-26T00:36:07.251Z,10.68
2022-08-26T00:38:37.895Z,8.45
2022-08-26T00:41:06.371Z,9.13
2022-08-26T00:43:47.239Z,9.75
2022-08-26T00:46:18.525Z,9.07
2022-08-26T00:48:48.172Z,9.23
2022-08-26T00:51:24.745Z,9.43
2022-08-26T00:54:04.040Z,11.18
2022-08-26T00:56:40.776Z,10.57
2022-08-26T00:59:10.382Z,8.95
2022-08-26T01:01:38.043Z,11.27
2022-08-26T01:04:05.927Z,7.88
2022-08-26T01:06:32.738Z,8.77
2022-08-26T01:09:00.010Z,8.95
2022-08-26T01:11:27.653Z,10.60
2022-08-26T01:13:58.108Z,9.73
2022-08-26T01:16:25.543Z,10.73
2022-08-26T01:18:58.925Z,12.75
2022-08-26T01:21:25.318Z,11.30
2022-08-26T01:23:57.385Z,10.77
2022-08-26T01:26:35.713Z,10.02
2022-08-26T01:29:05.220Z,9.00
2022-08-26T01:31:41.807Z,9.43
2022-08-26T01:34:14.847Z,10.30
2022-08-26T01:36:41.965Z,12.32
2022-08-26T01:39:09.332Z,9.88
2022-08-26T01:41:40.523Z,11.85
2022-08-26T01:44:20.016Z,12.48
2022-08-26T01:46:50.743Z,11.27
2022-08-26T01:49:18.544Z,15.93
2022-08-26T01:51:48.009Z,14.52
2022-08-26T01:54:16.098Z,13.00
2022-08-26T01:56:42.956Z,16.42
2022-08-26T01:59:14.781Z,16.45
2022-08-26T02:01:43.206Z,19.50
2022-08-26T02:04:28.678Z,15.02
2022-08-26T02:06:56.994Z,13.50
2022-08-26T02:09:26.458Z,19.70
2022-08-26T02:11:53.944Z,26.33
2022-08-26T02:14:28.014Z,19.77
2022-08-26T02:16:56.018Z,21.90
2022-08-26T02:19:32.620Z,26.65
2022-08-26T02:22:03.452Z,30.30
2022-08-26T02:24:55.991Z,31.27
2022-08-26T02:27:32.056Z,32.75
2022-08-26T02:30:04.945Z,39.13
2022-08-26T02:32:32.091Z,38.03
2022-08-26T02:34:58.555Z,39.13
2022-08-26T02:37:28.911Z,37.13
2022-08-26T02:39:55.567Z,39.05
2022-08-26T02:42:23.610Z,37.65
2022-08-26T02:44:51.788Z,34.00
2022-08-26T02:47:18.361Z,38.70
2022-08-26T02:49:47.271Z,40.20
2022-08-26T02:52:14.542Z,40.60
2022-08-26T02:54:41.155Z,38.67
2022-08-26T02:57:08.541Z,52.55
2022-08-26T02:59:35.972Z,53.75
2022-08-26T03:02:03.264Z,44.00
2022-08-26T03:04:31.115Z,42.78
2022-08-26T03:07:00.127Z,46.58
2022-08-26T03:09:27.479Z,49.45
2022-08-26T03:11:55.426Z,54.35
2022-08-26T03:14:23.880Z,50.75
2022-08-26T03:16:53.997Z,61.88
2022-08-26T03:19:22.977Z,57.45
2022-08-26T03:21:49.431Z,57.95
2022-08-26T03:24:17.488Z,66.47
2022-08-26T03:26:52.135Z,62.50
2022-08-26T03:29:39.541Z,54.88
2022-08-26T03:32:06.189Z,68.57
2022-08-26T03:34:33.466Z,60.00
2022-08-26T03:37:00.437Z,64.80
2022-08-26T03:39:27.057Z,56.05
2022-08-26T03:41:55.280Z,55.53
2022-08-26T03:44:21.967Z,60.58
2022-08-26T03:46:48.466Z,71.90
2022-08-26T03:49:15.710Z,67.97
2022-08-26T03:51:42.219Z,70.80
2022-08-26T03:54:08.927Z,73.47
2022-08-26T03:56:36.556Z,79.32
2022-08-26T03:59:05.408Z,76.40
2022-08-26T04:01:35.728Z,81.93
2022-08-26T04:04:03.238Z,73.10
2022-08-26T04:06:34.588Z,67.10
2022-08-26T04:09:05.866Z,75.53
2022-08-26T04:11:35.871Z,77.75
2022-08-26T04:14:09.169Z,70.65
2022-08-26T04:16:35.996Z,74.25
2022-08-26T04:19:03.390Z,82.32
2022-08-26T04:21:29.929Z,70.32
2022-08-26T04:23:56.524Z,83.88
2022-08-26T04:26:25.500Z,75.13
2022-08-26T04:28:55.347Z,83.18
2022-08-26T04:31:23.199Z,72.40
2022-08-26T04:33:50.747Z,78.82
2022-08-26T04:36:19.908Z,92.60
2022-08-26T04:38:47.272Z,80.43
2022-08-26T04:41:15.214Z,86.32
2022-08-26T04:43:44.449Z,76.82
2022-08-26T04:46:13.058Z,79.90
2022-08-26T04:48:41.135Z,86.68
2022-08-26T04:51:09.890Z,80.97
2022-08-26T04:53:37.572Z,65.90
2022-08-26T04:56:05.038Z,82.85
2022-08-26T04:58:32.499Z,81.18
2022-08-26T05:00:59.413Z,74.97
2022-08-26T05:03:30.626Z,84.15
2022-08-26T05:05:58.529Z,88.07
2022-08-26T05:08:26.247Z,85.55
2022-08-26T05:10:56.261Z,73.00
2022-08-26T05:13:26.360Z,98.03
2022-08-26T05:15:54.459Z,95.03
2022-08-26T05:18:23.941Z,92.82
2022-08-26T05:20:53.929Z,83.32
2022-08-26T05:23:22.730Z,91.93
2022-08-26T05:25:58.992Z,87.00
2022-08-26T05:28:28.296Z,88.32
2022-08-26T05:30:55.956Z,76.72
2022-08-26T05:33:23.475Z,89.35
2022-08-26T05:35:50.163Z,92.15
2022-08-26T05:38:20.417Z,100.07
2022-08-26T05:40:52.950Z,88.03
2022-08-26T05:43:21.205Z,94.55
2022-08-26T05:45:50.181Z,100.22
2022-08-26T05:48:22.735Z,104.18
2022-08-26T05:50:53.194Z,104.10
2022-08-26T05:53:21.754Z,106.03
2022-08-26T05:55:50.776Z,98.25
2022-08-26T05:58:20.152Z,114.20
2022-08-26T06:00:56.237Z,112.53
2022-08-26T06:03:23.021Z,112.35
2022-08-26T06:05:49.613Z,107.85
2022-08-26T06:08:16.424Z,126.00
2022-08-26T06:10:59.099Z,128.52
2022-08-26T06:13:27.359Z,117.68
2022-08-26T06:15:59.151Z,121.18
2022-08-26T06:18:34.820Z,117.22
2022-08-26T06:21:25.472Z,118.80
2022-08-26T06:24:13.630Z,119.07
2022-08-26T06:26:42.752Z,118.68
2022-08-26T06:29:09.720Z,120.90
2022-08-26T06:31:36.787Z,125.55
2022-08-26T06:34:10.348Z,120.68
2022-08-26T06:36:39.303Z,127.45
2022-08-26T06:39:09.945Z,118.43
2022-08-26T06:41:43.139Z,117.05
2022-08-26T06:44:10.207Z,120.18
2022-08-26T06:46:37.607Z,112.95
2022-08-26T06:49:05.570Z,119.15
2022-08-26T06:51:35.958Z,116.38
2022-08-26T06:54:04.317Z,118.88
2022-08-26T06:56:40.388Z,111.13
2022-08-26T06:59:08.267Z,108.07
2022-08-26T07:01:38.752Z,120.88
2022-08-26T07:04:10.889Z,108.93
2022-08-26T07:06:43.101Z,102.50
2022-08-26T07:09:10.846Z,108.55
2022-08-26T07:11:39.123Z,105.45
2022-08-26T07:14:07.037Z,106.53
2022-08-26T07:16:34.060Z,105.60
2022-08-26T07:19:10.550Z,104.43
2022-08-26T07:21:38.103Z,95.68
2022-08-26T07:24:04.782Z,98.53
2022-08-26T07:26:31.709Z,90.75
2022-08-26T07:28:59.623Z,95.18
2022-08-26T07:31:30.951Z,90.30
2022-08-26T07:34:00.002Z,98.95
2022-08-26T07:36:28.396Z,90.53
2022-08-26T07:38:55.171Z,86.38
2022-08-26T07:41:23.996Z,89.13
2022-08-26T07:43:52.328Z,92.95
2022-08-26T07:46:20.794Z,87.53
2022-08-26T07:48:54.523Z,85.30
2022-08-26T07:51:22.666Z,85.85
2022-08-26T07:53:52.811Z,76.22
2022-08-26T07:56:20.805Z,79.72
2022-08-26T07:58:50.957Z,81.97
2022-08-26T08:01:20.011Z,71.57
2022-08-26T08:03:46.664Z,82.38
2022-08-26T08:06:19.562Z,72.78
2022-08-26T08:08:46.451Z,66.07
2022-08-26T08:11:14.353Z,66.13
2022-08-26T08:13:40.949Z,66.53
2022-08-26T08:16:08.579Z,68.45
2022-08-26T08:18:40.167Z,61.22
2022-08-26T08:21:24.003Z,62.25
2022-08-26T08:23:52.627Z,64.47
2022-08-26T08:26:19.614Z,69.57
2022-08-26T08:28:47.988Z,60.38
2022-08-26T08:31:54.306Z,65.55
2022-08-26T08:34:10.975Z,58.65
2022-08-26T08:36:37.497Z,57.47
2022-08-26T08:39:05.059Z,63.55
2022-08-26T08:42:00.815Z,53.47
2022-08-26T08:44:29.022Z,52.72
2022-08-26T08:47:04.551Z,49.50
2022-08-26T08:49:33.735Z,57.45
2022-08-26T08:52:18.609Z,54.05
2022-08-26T08:54:46.448Z,60.53
2022-08-26T08:57:21.288Z,58.88
2022-08-26T09:00:02.420Z,53.92
2022-08-26T09:02:40.499Z,51.70
2022-08-26T09:05:29.893Z,55.10
2022-08-26T09:08:06.803Z,58.00
2022-08-26T09:10:41.478Z,50.15
2022-08-26T09:13:16.890Z,44.88
2022-08-26T09:15:59.253Z,52.33
2022-08-26T09:18:54.080Z,52.03
2022-08-26T09:21:23.533Z,47.20
2022-08-26T09:23:53.692Z,44.70
2022-08-26T09:26:40.974Z,49.00
2022-08-26T09:31:52.417Z,50.75
2022-08-26T09:34:28.354Z,41.97
2022-08-26T09:36:59.855Z,41.78
2022-08-26T09:39:39.007Z,44.47
2022-08-26T09:42:25.494Z,41.92
2022-08-26T09:45:00.417Z,39.97
2022-08-26T09:47:51.853Z,43.15
2022-08-26T09:50:36.736Z,43.20
2022-08-26T09:53:20.851Z,43.05
2022-08-26T09:55:50.284Z,47.25
2022-08-26T09:58:37.938Z,39.30
2022-08-26T10:01:35.368Z,36.40
2022-08-26T10:04:09.721Z,36.38
2022-08-26T10:07:02.302Z,36.47
2022-08-26T10:09:33.170Z,40.92
2022-08-26T10:12:05.429Z,42.72
2022-08-26T10:14:49.062Z,36.53
2022-08-26T10:17:38.284Z,34.58
2022-08-26T10:20:22.456Z,31.23
2022-08-26T10:22:54.063Z,35.03
2022-08-26T10:25:26.279Z,36.72
2022-08-26T10:27:59.439Z,34.03
2022-08-26T10:30:34.479Z,30.65
2022-08-26T10:33:06.576Z,36.90
2022-08-26T10:35:36.376Z,33.08
2022-08-26T10:38:10.967Z,35.83
2022-08-26T10:40:56.227Z,34.00
2022-08-26T10:43:28.184Z,37.42
2022-08-26T10:46:00.905Z,41.10
2022-08-26T10:48:46.840Z,36.78
2022-08-26T10:51:16.416Z,37.03
2022-08-26T10:53:56.662Z,41.90
2022-08-26T10:56:53.801Z,36.08
2022-08-26T10:59:45.753Z,39.58
2022-08-26T11:02:25.126Z,35.83
2022-08-26T11:05:14.650Z,39.03
2022-08-26T11:07:52.559Z,42.63
2022-08-26T11:10:21.735Z,41.97
2022-08-26T11:13:06.819Z,47.83
2022-08-26T11:18:11.132Z,36.15
2022-08-26T11:20:44.860Z,39.80
2022-08-26T11:23:12.522Z,40.45
2022-08-26T11:26:11.501Z,39.38
2022-08-26T11:28:49.173Z,31.13
2022-08-26T11:31:19.149Z,37.88
2022-08-26T11:33:58.229Z,33.10
2022-08-26T11:36:35.345Z,32.13
2022-08-26T11:39:28.517Z,35.78
2022-08-26T11:42:00.083Z,35.42
2022-08-26T11:44:38.996Z,39.10
2022-08-26T11:47:11.352Z,37.80
2022-08-26T11:49:38.773Z,39.85
2022-08-26T11:52:20.895Z,32.53
2022-08-26T11:55:11.173Z,31.70
2022-08-26T11:57:45.718Z,33.40
2022-08-26T12:00:26.511Z,30.83
2022-08-26T12:02:55.564Z,32.08
2022-08-26T12:05:34.870Z,28.48
2022-08-26T12:08:11.984Z,29.05
2022-08-26T12:10:38.667Z,23.85
2022-08-26T12:13:07.180Z,25.30
2022-08-26T12:15:35.448Z,24.80
2022-08-26T12:18:28.907Z,25.08
2022-08-26T12:20:59.777Z,26.10
2022-08-26T12:23:36.702Z,22.33
2022-08-26T12:26:29.493Z,22.95
2022-08-26T12:29:19.711Z,22.10
2022-08-26T12:31:47.893Z,21.00
2022-08-26T12:34:18.108Z,20.05
2022-08-26T12:36:56.377Z,21.98
2022-08-26T12:39:36.599Z,20.08
2022-08-26T12:42:22.033Z,19.13
2022-08-26T12:44:58.425Z,20.70
2022-08-26T12:47:41.862Z,20.63
2022-08-26T12:50:20.382Z,25.25
2022-08-26T12:53:03.019Z,19.73
2022-08-26T12:55:32.708Z,19.80
2022-08-26T12:58:18.082Z,21.73
2022-08-26T13:00:45.811Z,21.48
2022-08-26T13:03:34.286Z,20.75
2022-08-26T13:06:15.876Z,23.50
2022-08-26T13:08:58.004Z,29.25
2022-08-26T13:11:28.288Z,25.42
2022-08-26T13:13:57.828Z,28.60
2022-08-26T13:16:25.483Z,23.20
2022-08-26T13:18:58.715Z,29.17
2022-08-26T13:21:32.070Z,25.90
2022-08-26T13:24:12.468Z,27.17
2022-08-26T13:26:40.884Z,30.77
2022-08-26T13:29:10.379Z,25.38
2022-08-26T13:31:39.538Z,18.92
2022-08-26T13:34:08.572Z,21.17
2022-08-26T13:36:35.253Z,21.70
2022-08-26T13:39:01.836Z,26.88
2022-08-26T13:41:29.184Z,20.63
2022-08-26T13:43:56.855Z,22.63
2022-08-26T13:46:27.380Z,24.05
2022-08-26T13:48:54.514Z,21.35
2022-08-26T13:51:22.545Z,23.40
2022-08-26T13:53:50.577Z,21.88
2022-08-26T13:56:18.730Z,24.35
2022-08-26T13:58:46.744Z,17.48
2022-08-26T14:01:15.470Z,19.85
2022-08-26T14:03:43.612Z,15.52
2022-08-26T14:06:10.397Z,14.95
2022-08-26T14:08:38.484Z,13.48
2022-08-26T14:11:05.200Z,20.48
2022-08-26T14:13:31.786Z,14.45
2022-08-26T14:16:01.389Z,15.30
2022-08-26T14:18:33.236Z,13.65
2022-08-26T14:21:00.595Z,13.48
2022-08-26T14:23:27.526Z,12.88
2022-08-26T14:25:54.147Z,11.20
2022-08-26T14:28:20.724Z,9.93
2022-08-26T14:30:57.735Z,11.27
2022-08-26T14:33:27.096Z,16.10
2022-08-26T14:36:13.696Z,16.15
2022-08-26T14:38:40.232Z,14.93
2022-08-26T14:41:06.939Z,13.55
2022-08-26T14:43:34.027Z,18.20
2022-08-26T14:46:00.993Z,13.27
2022-08-26T14:48:27.459Z,13.27
2022-08-26T14:50:54.050Z,10.60
2022-08-26T14:53:39.033Z,15.05
2022-08-26T14:56:05.716Z,14.82
2022-08-26T14:58:34.891Z,17.23
2022-08-26T15:01:04.438Z,14.30
2022-08-26T15:03:31.053Z,12.73
2022-08-26T15:05:57.883Z,10.82
2022-08-26T15:08:25.432Z,16.17
2022-08-26T15:10:51.938Z,16.65
2022-08-26T15:13:19.011Z,11.85
2022-08-26T15:15:46.422Z,14.48
2022-08-26T15:18:13.124Z,10.30
2022-08-26T15:20:39.659Z,10.25
2022-08-26T15:23:07.357Z,8.85
2022-08-26T15:25:34.104Z,9.75
2022-08-26T15:28:00.881Z,13.52
2022-08-26T15:30:27.399Z,11.50
2022-08-26T15:32:54.078Z,12.30
2022-08-26T15:35:20.545Z,12.35
2022-08-26T15:37:47.299Z,13.02
2022-08-26T15:40:13.848Z,15.65
2022-08-26T15:42:40.546Z,13.68
2022-08-26T15:45:07.761Z,13.40
2022-08-26T15:47:35.479Z,11.68
2022-08-26T15:50:20.910Z,10.70
2022-08-26T15:52:47.809Z,12.70
2022-08-26T15:55:14.281Z,8.23
2022-08-26T15:57:40.963Z,13.93
2022-08-26T16:00:09.742Z,8.93
2022-08-26T16:02:36.307Z,11.52
2022-08-26T16:05:02.934Z,11.25
2022-08-26T16:07:29.402Z,8.77
2022-08-26T16:09:56.684Z,8.10
2022-08-26T16:12:23.168Z,11.63
2022-08-26T16:14:51.452Z,15.75
2022-08-26T16:17:19.842Z,6.05
2022-08-26T16:19:46.996Z,8.57
2022-08-26T16:22:13.568Z,8.77
2022-08-26T16:24:40.060Z,10.32
2022-08-26T16:27:06.709Z,10.43
2022-08-26T16:29:33.244Z,17.35
2022-08-26T16:31:59.793Z,14.02
2022-08-26T16:34:26.408Z,13.77
2022-08-26T16:36:53.002Z,10.63
2022-08-26T16:39:19.624Z,14.95
2022-08-26T16:41:46.079Z,16.35
2022-08-26T16:44:12.780Z,15.07
2022-08-26T16:46:39.629Z,10.88
2022-08-26T16:49:06.334Z,15.90
2022-08-26T16:51:37.636Z,12.15
2022-08-26T16:54:07.077Z,9.23
2022-08-26T16:56:34.725Z,12.48
2022-08-26T16:59:05.742Z,14.38
2022-08-26T17:01:32.471Z,11.88
2022-08-26T17:03:59.045Z,14.93
2022-08-26T17:06:25.579Z,10.25
2022-08-26T17:08:52.987Z,14.07
2022-08-26T17:11:19.693Z,11.63
2022-08-26T17:13:46.296Z,11.63
2022-08-26T17:16:13.706Z,15.93
2022-08-26T17:18:40.490Z,9.18
2022-08-26T17:21:10.538Z,16.67
2022-08-26T17:23:38.176Z,15.05
2022-08-26T17:26:04.847Z,13.02
2022-08-26T17:28:31.970Z,13.40
2022-08-26T17:30:59.578Z,16.48
2022-08-26T17:33:26.959Z,14.35
2022-08-26T17:35:54.059Z,13.43
2022-08-26T17:38:21.600Z,13.55
2022-08-26T17:40:49.536Z,16.20
2022-08-26T17:43:16.653Z,13.82
2022-08-26T17:45:43.859Z,14.95
2022-08-26T17:48:11.099Z,14.05
2022-08-26T17:50:42.831Z,15.80
2022-08-26T17:53:12.686Z,19.90
2022-08-26T17:55:47.048Z,15.18
2022-08-26T17:58:14.668Z,17.15
2022-08-26T18:00:50.128Z,17.23
2022-08-26T18:03:17.676Z,18.02
2022-08-26T18:05:48.241Z,17.63
2022-08-26T18:08:14.856Z,17.95
2022-08-26T18:10:43.748Z,17.17
2022-08-26T18:13:10.658Z,18.42
2022-08-26T18:15:45.415Z,17.58
2022-08-26T18:18:14.508Z,17.55
2022-08-26T18:20:42.947Z,17.25
2022-08-26T18:23:10.223Z,15.20
2022-08-26T18:25:43.999Z,15.00
2022-08-26T18:28:10.992Z,15.50
2022-08-26T18:30:37.933Z,13.38
2022-08-26T18:33:04.770Z,12.95
2022-08-26T18:35:31.371Z,16.52
2022-08-26T18:37:58.298Z,10.90
2022-08-26T18:40:38.789Z,14.15
2022-08-26T18:43:05.644Z,13.02
2022-08-26T18:45:32.325Z,13.95
2022-08-26T18:47:58.824Z,13.45
2022-08-26T18:50:25.508Z,11.93
2022-08-26T18:52:52.063Z,11.25
2022-08-26T18:55:18.716Z,9.88
2022-08-26T18:57:45.280Z,12.27
2022-08-26T19:00:13.289Z,12.85
2022-08-26T19:02:39.852Z,14.88
2022-08-26T19:05:08.011Z,12.63
2022-08-26T19:07:39.001Z,11.05
2022-08-26T19:10:06.604Z,12.90
2022-08-26T19:12:34.862Z,13.70
2022-08-26T19:15:02.558Z,9.63
2022-08-26T19:17:29.159Z,14.48
2022-08-26T19:19:55.766Z,11.90
2022-08-26T19:22:22.287Z,11.13
2022-08-26T19:24:48.972Z,10.45
2022-08-26T19:27:15.488Z,8.63
2022-08-26T19:29:42.104Z,11.73
2022-08-26T19:32:08.794Z,15.88
2022-08-26T19:34:36.307Z,9.23
2022-08-26T19:37:02.804Z,12.05
2022-08-26T19:39:29.383Z,10.07
2022-08-26T19:41:55.946Z,9.10
2022-08-26T19:44:42.598Z,13.52
2022-08-26T19:47:10.876Z,11.48
2022-08-26T19:49:38.269Z,9.15
2022-08-26T19:52:05.957Z,10.30
2022-08-26T19:54:32.723Z,10.40
2022-08-26T19:56:59.253Z,9.05
2022-08-26T19:59:25.960Z,9.50
2022-08-26T20:02:00.641Z,12.43
2022-08-26T20:04:28.944Z,8.27
2022-08-26T20:06:57.689Z,12.30
2022-08-26T20:09:28.411Z,8.23
2022-08-26T20:11:56.922Z,8.70
2022-08-26T20:14:28.638Z,9.30
2022-08-26T20:16:55.559Z,6.40
2022-08-26T20:19:41.099Z,10.65
2022-08-26T20:22:08.748Z,12.02
2022-08-26T20:24:38.679Z,9.10
2022-08-26T20:27:08.037Z,8.75
2022-08-26T20:29:36.411Z,13.13
2022-08-26T20:32:05.846Z,9.07
2022-08-26T20:34:38.583Z,10.32
2022-08-26T20:37:05.972Z,13.02
2022-08-26T20:39:32.874Z,10.73
2022-08-26T20:41:59.385Z,11.30
2022-08-26T20:44:27.122Z,10.10
2022-08-26T20:46:53.569Z,8.48
2022-08-26T20:49:20.305Z,11.13
2022-08-26T20:51:51.361Z,12.30
2022-08-26T20:54:19.880Z,9.38
2022-08-26T20:56:46.998Z,8.05
2022-08-26T20:59:14.101Z,8.85
2022-08-26T21:01:42.457Z,8.00
2022-08-26T21:04:13.812Z,10.93
2022-08-26T21:06:42.345Z,21.77
2022-08-26T21:09:16.441Z,9.80
2022-08-26T21:11:44.411Z,12.88
2022-08-26T21:14:16.790Z,16.77
2022-08-26T21:16:45.672Z,10.40
2022-08-26T21:19:17.538Z,11.00
2022-08-26T21:21:44.484Z,11.43
2022-08-26T21:24:11.385Z,14.82
2022-08-26T21:26:38.251Z,11.85
2022-08-26T21:29:06.642Z,10.13
2022-08-26T21:31:33.369Z,10.68
2022-08-26T21:34:00.080Z,11.63
2022-08-26T21:36:26.948Z,13.82
2022-08-26T21:38:58.942Z,10.93
2022-08-26T21:41:26.557Z,11.63
2022-08-26T21:43:57.912Z,12.60
2022-08-26T21:46:26.099Z,14.50
2022-08-26T21:48:59.034Z,20.95
2022-08-26T21:51:32.537Z,10.85
2022-08-26T21:54:00.833Z,16.50
2022-08-26T21:56:31.461Z,14.00
2022-08-26T21:58:59.117Z,13.20
2022-08-26T22:01:29.436Z,11.75
2022-08-26T22:03:56.296Z,13.30
2022-08-26T22:06:25.992Z,12.05
2022-08-26T22:08:54.065Z,13.25
2022-08-26T22:11:21.261Z,12.35
2022-08-26T22:13:49.171Z,12.63
2022-08-26T22:16:15.784Z,10.48
2022-08-26T22:18:43.761Z,11.80
2022-08-26T22:21:14.738Z,12.95
2022-08-26T22:23:41.361Z,16.00
2022-08-26T22:26:09.933Z,13.73
2022-08-26T22:28:36.690Z,17.58
2022-08-26T22:31:03.228Z,11.40
2022-08-26T22:33:29.853Z,13.25
2022-08-26T22:35:56.453Z,15.95
2022-08-26T22:38:23.853Z,13.82
2022-08-26T22:40:56.458Z,18.10
2022-08-26T22:43:24.229Z,11.75
2022-08-26T22:45:52.830Z,12.55
2022-08-26T22:48:22.620Z,15.20
2022-08-26T22:50:53.311Z,13.65
2022-08-26T22:53:21.461Z,14.90
2022-08-26T22:55:48.516Z,13.40
2022-08-26T22:58:16.903Z,12.75
2022-08-26T23:00:44.446Z,15.98
2022-08-26T23:03:11.493Z,21.70
2022-08-26T23:05:39.619Z,17.63
2022-08-26T23:08:06.776Z,19.40
2022-08-26T23:10:36.869Z,21.73
2022-08-26T23:13:05.675Z,17.08
2022-08-26T23:15:32.222Z,21.42
2022-08-26T23:17:59.112Z,21.40
2022-08-26T23:20:26.436Z,27.02
2022-08-26T23:22:53.515Z,20.67
2022-08-26T23:25:21.048Z,25.85
2022-08-26T23:27:48.410Z,18.65
2022-08-26T23:30:18.677Z,25.05
2022-08-26T23:32:47.307Z,22.30
2022-08-26T23:35:14.919Z,21.00
2022-08-26T23:37:46.142Z,23.45
2022-08-26T23:40:20.025Z,18.95
2022-08-26T23:42:46.565Z,20.17
2022-08-26T23:45:14.597Z,18.90
2022-08-26T23:47:41.338Z,18.52
2022-08-26T23:50:08.575Z,20.58
2022-08-26T23:52:54.096Z,22.45
2022-08-26T23:55:20.772Z,22.80
2022-08-26T23:57:47.528Z,24.60
